createdAt,value
2017-11-26T00:03:47.190Z,32.23
2017-11-26T00:06:13.423Z,30.90
2017-11-26T00:08:39.773Z,31.87
2017-11-26T00:11:06.022Z,33.23
2017-11-26T00:13:32.244Z,31.97
2017-11-26T00:15:58.505Z,30.87
2017-11-26T00:18:24.742Z,32.03
2017-11-26T00:20:50.983Z,35.10
2017-11-26T00:23:17.256Z,29.30
2017-11-26T00:25:44.456Z,41.47
2017-11-26T00:28:10.801Z,36.87
2017-11-26T00:30:37.072Z,38.40
2017-11-26T00:33:03.324Z,35.87
2017-11-26T00:35:29.744Z,43.20
2017-11-26T00:37:56.045Z,44.50
2017-11-26T00:40:22.269Z,40.47
2017-11-26T00:42:48.488Z,41.97
2017-11-26T00:45:14.745Z,38.20
2017-11-26T00:47:41.082Z,37.37
2017-11-26T00:50:07.336Z,40.40
2017-11-26T00:52:33.643Z,34.40
2017-11-26T00:54:59.878Z,29.43
2017-11-26T00:57:26.124Z,32.23
2017-11-26T00:59:52.386Z,38.87
2017-11-26T01:02:18.617Z,33.80
2017-11-26T01:04:44.852Z,35.23
2017-11-26T01:07:11.113Z,37.77
2017-11-26T01:09:37.344Z,29.83
2017-11-26T01:12:03.571Z,32.50
2017-11-26T01:14:29.812Z,35.27
2017-11-26T01:16:56.041Z,41.10
2017-11-26T01:19:22.259Z,34.53
2017-11-26T01:21:48.686Z,32.30
2017-11-26T01:24:14.932Z,37.83
2017-11-26T01:26:41.142Z,31.20
2017-11-26T01:29:07.394Z,33.33
2017-11-26T01:31:33.638Z,33.30
2017-11-26T01:33:59.889Z,34.07
2017-11-26T01:36:26.182Z,34.23
2017-11-26T01:38:52.404Z,49.87
2017-11-26T01:41:18.644Z,43.07
2017-11-26T01:43:44.927Z,33.20
2017-11-26T01:46:11.168Z,35.53
2017-11-26T01:48:37.408Z,33.27
2017-11-26T01:51:03.681Z,32.90
2017-11-26T01:53:29.919Z,32.40
2017-11-26T01:55:56.150Z,29.70
2017-11-26T01:58:22.494Z,36.20
2017-11-26T02:00:48.749Z,34.83
2017-11-26T02:03:15.078Z,29.87
2017-11-26T02:05:41.337Z,40.47
2017-11-26T02:08:07.632Z,28.70
2017-11-26T02:10:33.864Z,26.93
2017-11-26T02:13:00.153Z,28.50
2017-11-26T02:15:26.512Z,29.47
2017-11-26T02:17:52.744Z,25.43
2017-11-26T02:20:19.028Z,31.17
2017-11-26T02:22:45.280Z,22.60
2017-11-26T02:25:11.643Z,32.70
2017-11-26T02:27:38.293Z,27.73
2017-11-26T02:30:04.530Z,30.80
2017-11-26T02:32:30.778Z,35.57
2017-11-26T02:34:57.051Z,34.10
2017-11-26T02:37:23.297Z,26.20
2017-11-26T02:39:49.558Z,23.80
2017-11-26T02:42:15.816Z,24.50
2017-11-26T02:44:42.058Z,25.27
2017-11-26T02:47:08.431Z,23.70
2017-11-26T02:49:34.718Z,20.37
2017-11-26T02:52:01.069Z,21.80
2017-11-26T02:54:27.300Z,23.67
2017-11-26T02:56:53.559Z,25.13
2017-11-26T02:59:19.838Z,24.53
2017-11-26T03:01:46.077Z,25.47
2017-11-26T03:04:12.351Z,33.30
2017-11-26T03:06:38.583Z,20.70
2017-11-26T03:09:04.824Z,28.03
2017-11-26T03:11:31.105Z,22.53
2017-11-26T03:13:57.348Z,26.60
2017-11-26T03:16:23.572Z,30.93
2017-11-26T03:18:49.874Z,27.83
2017-11-26T03:21:16.126Z,24.33
2017-11-26T03:23:42.375Z,33.90
2017-11-26T03:26:08.635Z,20.60
2017-11-26T03:28:34.887Z,21.00
2017-11-26T03:31:01.118Z,21.83
2017-11-26T03:33:27.423Z,22.80
2017-11-26T03:35:53.652Z,29.90
2017-11-26T03:38:19.904Z,34.90
2017-11-26T03:40:46.254Z,26.87
2017-11-26T03:43:12.478Z,20.30
2017-11-26T03:45:38.703Z,26.17
2017-11-26T03:48:04.962Z,23.47
2017-11-26T03:50:31.191Z,23.07
2017-11-26T03:52:57.440Z,23.33
2017-11-26T03:55:23.861Z,35.70
2017-11-26T03:57:50.097Z,23.13
2017-11-26T04:00:16.323Z,21.63
2017-11-26T04:02:42.586Z,19.37
2017-11-26T04:05:08.816Z,19.30
2017-11-26T04:07:35.054Z,20.37
2017-11-26T04:10:01.335Z,22.80
2017-11-26T04:12:27.593Z,20.30
2017-11-26T04:14:53.808Z,20.27
2017-11-26T04:17:20.089Z,22.53
2017-11-26T04:19:46.346Z,21.27
2017-11-26T04:22:12.573Z,23.33
2017-11-26T04:24:39.017Z,19.47
2017-11-26T04:27:05.254Z,19.87
2017-11-26T04:29:31.498Z,26.80
2017-11-26T04:31:57.770Z,20.27
2017-11-26T04:34:23.995Z,25.40
2017-11-26T04:36:50.220Z,19.13
2017-11-26T04:39:16.492Z,21.03
2017-11-26T04:41:42.729Z,22.33
2017-11-26T04:44:08.951Z,25.93
2017-11-26T04:46:35.229Z,22.40
2017-11-26T04:49:01.463Z,24.20
2017-11-26T04:51:27.701Z,18.73
2017-11-26T04:53:53.978Z,18.63
2017-11-26T04:56:20.212Z,17.40
2017-11-26T04:58:46.429Z,20.10
2017-11-26T05:01:12.691Z,22.23
2017-11-26T05:03:38.919Z,19.77
2017-11-26T05:06:05.161Z,24.63
2017-11-26T05:08:31.458Z,23.03
2017-11-26T05:10:57.676Z,19.83
2017-11-26T05:13:23.917Z,20.13
2017-11-26T05:15:50.198Z,19.50
2017-11-26T05:18:16.425Z,20.67
2017-11-26T05:20:42.668Z,21.67
2017-11-26T05:23:08.931Z,18.27
2017-11-26T05:25:35.161Z,21.13
2017-11-26T05:28:01.407Z,16.83
2017-11-26T05:30:27.659Z,18.80
2017-11-26T05:32:53.880Z,19.20
2017-11-26T05:35:20.104Z,17.30
2017-11-26T05:37:46.379Z,19.63
2017-11-26T05:40:12.606Z,19.67
2017-11-26T05:42:38.849Z,31.03
2017-11-26T05:45:05.127Z,23.20
2017-11-26T05:47:31.372Z,22.00
2017-11-26T05:49:57.620Z,23.20
2017-11-26T05:52:23.877Z,33.37
2017-11-26T05:54:50.103Z,23.70
2017-11-26T05:57:16.328Z,35.80
2017-11-26T05:59:42.625Z,21.27
2017-11-26T06:02:08.868Z,18.97
2017-11-26T06:04:35.100Z,24.90
2017-11-26T06:07:01.360Z,22.03
2017-11-26T06:09:27.589Z,24.47
2017-11-26T06:11:53.815Z,24.97
2017-11-26T06:14:20.073Z,22.40
2017-11-26T06:16:46.302Z,22.70
2017-11-26T06:19:12.529Z,22.20
2017-11-26T06:21:38.804Z,23.07
2017-11-26T06:24:05.062Z,17.10
2017-11-26T06:26:31.285Z,21.03
2017-11-26T06:28:57.551Z,18.43
2017-11-26T06:31:23.784Z,20.70
2017-11-26T06:33:50.152Z,16.40
2017-11-26T06:36:16.428Z,18.23
2017-11-26T06:38:42.657Z,18.90
2017-11-26T06:41:08.929Z,16.00
2017-11-26T06:43:35.212Z,17.80
2017-11-26T06:46:01.449Z,24.00
2017-11-26T06:48:27.689Z,31.77
2017-11-26T06:50:53.968Z,30.53
2017-11-26T06:53:20.202Z,33.77
2017-11-26T06:55:46.445Z,23.57
2017-11-26T06:58:12.735Z,29.57
2017-11-26T07:00:38.957Z,29.07
2017-11-26T07:03:05.175Z,30.70
2017-11-26T07:05:31.445Z,32.70
2017-11-26T07:07:57.695Z,30.13
2017-11-26T07:10:23.916Z,29.97
2017-11-26T07:12:50.177Z,24.40
2017-11-26T07:15:16.422Z,23.80
2017-11-26T07:17:42.675Z,26.13
2017-11-26T07:20:08.932Z,26.50
2017-11-26T07:22:35.167Z,34.23
2017-11-26T07:25:01.406Z,31.07
2017-11-26T07:27:27.661Z,27.57
2017-11-26T07:29:53.893Z,36.47
2017-11-26T07:32:20.108Z,32.33
2017-11-26T07:34:46.468Z,30.90
2017-11-26T07:37:12.715Z,23.80
2017-11-26T07:39:38.959Z,27.43
2017-11-26T07:42:05.242Z,20.90
2017-11-26T07:44:31.470Z,17.40
2017-11-26T07:46:57.804Z,17.50
2017-11-26T07:49:24.080Z,22.80
2017-11-26T07:51:50.308Z,20.17
2017-11-26T07:54:16.546Z,17.73
2017-11-26T07:56:42.814Z,16.37
2017-11-26T07:59:09.048Z,16.90
2017-11-26T08:01:35.286Z,19.87
2017-11-26T08:04:01.552Z,22.60
2017-11-26T08:06:27.780Z,30.10
2017-11-26T08:08:54.026Z,25.57
2017-11-26T08:11:20.297Z,19.43
2017-11-26T08:13:46.512Z,22.87
2017-11-26T08:16:12.750Z,19.33
2017-11-26T08:18:39.012Z,22.87
2017-11-26T08:21:05.300Z,23.50
2017-11-26T08:23:31.520Z,29.47
2017-11-26T08:25:57.899Z,31.00
2017-11-26T08:28:24.129Z,39.50
2017-11-26T08:30:50.369Z,33.40
2017-11-26T08:33:16.633Z,24.87
2017-11-26T08:35:43.045Z,26.67
2017-11-26T08:38:09.272Z,31.70
2017-11-26T08:40:35.547Z,46.17
2017-11-26T08:43:01.791Z,47.37
2017-11-26T08:45:28.015Z,54.53
2017-11-26T08:47:54.301Z,54.00
2017-11-26T08:50:20.547Z,46.60
2017-11-26T08:52:46.779Z,42.23
2017-11-26T08:55:13.048Z,43.53
2017-11-26T08:57:39.301Z,47.00
2017-11-26T09:00:05.715Z,38.53
2017-11-26T09:02:31.994Z,44.03
2017-11-26T09:04:58.371Z,42.83
2017-11-26T09:07:24.642Z,39.50
2017-11-26T09:09:50.916Z,52.77
2017-11-26T09:12:17.166Z,58.70
2017-11-26T09:14:43.410Z,55.47
2017-11-26T09:17:09.693Z,31.67
2017-11-26T09:19:35.957Z,102.30
2017-11-26T09:22:02.189Z,61.80
2017-11-26T09:24:28.448Z,42.10
2017-11-26T09:26:54.685Z,81.43
2017-11-26T09:29:20.963Z,37.03
2017-11-26T09:31:47.275Z,35.47
2017-11-26T09:34:13.531Z,56.97
2017-11-26T09:36:39.777Z,39.73
2017-11-26T09:39:06.052Z,33.87
2017-11-26T09:41:32.283Z,36.60
2017-11-26T09:43:58.484Z,38.33
2017-11-26T09:46:24.745Z,39.30
2017-11-26T09:48:50.983Z,30.00
2017-11-26T09:51:17.200Z,23.43
2017-11-26T09:53:43.465Z,26.27
2017-11-26T09:56:09.669Z,31.90
2017-11-26T09:58:35.887Z,25.60
2017-11-26T10:01:02.161Z,27.40
2017-11-26T10:03:28.405Z,25.03
2017-11-26T10:05:54.648Z,27.60
2017-11-26T10:08:20.906Z,49.43
2017-11-26T10:10:47.122Z,64.33
2017-11-26T10:13:13.334Z,46.23
2017-11-26T10:15:39.625Z,65.47
2017-11-26T10:18:05.852Z,39.20
2017-11-26T10:20:32.087Z,29.90
2017-11-26T10:22:58.364Z,32.53
2017-11-26T10:25:24.606Z,22.03
2017-11-26T10:27:50.829Z,26.00
2017-11-26T10:30:17.092Z,35.03
2017-11-26T10:32:43.326Z,44.63
2017-11-26T10:35:09.551Z,19.87
2017-11-26T10:37:35.838Z,21.83
2017-11-26T10:40:02.071Z,22.17
2017-11-26T10:42:28.304Z,24.40
2017-11-26T10:44:54.669Z,27.00
2017-11-26T10:47:20.926Z,28.70
2017-11-26T10:49:47.168Z,22.80
2017-11-26T10:52:13.451Z,35.33
2017-11-26T10:54:39.701Z,26.77
2017-11-26T10:57:05.935Z,30.93
2017-11-26T10:59:32.199Z,36.90
2017-11-26T11:01:58.412Z,37.97
2017-11-26T11:04:24.686Z,47.17
2017-11-26T11:06:51.000Z,32.93
2017-11-26T11:09:17.236Z,40.70
2017-11-26T11:11:43.469Z,40.00
2017-11-26T11:14:09.726Z,35.10
2017-11-26T11:16:35.935Z,35.80
2017-11-26T11:19:02.159Z,33.03
2017-11-26T11:21:28.428Z,38.53
2017-11-26T11:23:54.808Z,40.57
2017-11-26T11:26:21.052Z,40.80
2017-11-26T11:28:47.302Z,34.50
2017-11-26T11:31:13.529Z,31.70
2017-11-26T11:33:39.746Z,36.30
2017-11-26T11:36:06.016Z,34.03
2017-11-26T11:38:32.271Z,50.63
2017-11-26T11:40:58.492Z,47.60
2017-11-26T11:43:24.703Z,29.00
2017-11-26T11:45:50.980Z,30.20
2017-11-26T11:48:17.225Z,31.47
2017-11-26T11:50:43.553Z,38.07
2017-11-26T11:53:09.985Z,35.60
2017-11-26T11:55:36.210Z,37.30
2017-11-26T11:58:02.434Z,36.07
2017-11-26T12:00:28.721Z,34.40
2017-11-26T12:02:54.955Z,32.67
2017-11-26T12:05:21.340Z,41.40
2017-11-26T12:07:47.607Z,44.10
2017-11-26T12:10:13.824Z,25.17
2017-11-26T12:12:40.047Z,29.03
2017-11-26T12:15:06.324Z,30.80
2017-11-26T12:17:32.546Z,41.37
2017-11-26T12:19:58.912Z,45.40
2017-11-26T12:22:25.169Z,39.00
2017-11-26T12:24:51.404Z,43.37
2017-11-26T12:27:17.649Z,43.83
2017-11-26T12:29:43.919Z,47.33
2017-11-26T12:32:10.184Z,48.00
2017-11-26T12:34:36.397Z,46.93
2017-11-26T12:37:02.656Z,51.50
2017-11-26T12:39:28.934Z,51.27
2017-11-26T12:41:55.182Z,44.10
2017-11-26T12:44:21.453Z,50.23
2017-11-26T12:46:47.667Z,43.73
2017-11-26T12:49:13.905Z,43.73
2017-11-26T12:51:40.190Z,36.87
2017-11-26T12:54:06.527Z,41.17
2017-11-26T12:56:32.760Z,47.07
2017-11-26T12:58:59.042Z,37.07
2017-11-26T13:01:25.270Z,71.43
2017-11-26T13:03:51.511Z,50.70
2017-11-26T13:06:17.764Z,44.67
2017-11-26T13:08:44.001Z,76.90
2017-11-26T13:11:10.229Z,67.57
2017-11-26T13:13:36.491Z,54.70
2017-11-26T13:16:02.737Z,64.07
2017-11-26T13:18:29.007Z,63.57
2017-11-26T13:20:55.281Z,56.70
2017-11-26T13:23:21.530Z,50.10
2017-11-26T13:25:47.805Z,43.23
2017-11-26T13:28:14.099Z,45.23
2017-11-26T13:30:40.328Z,44.20
2017-11-26T13:33:06.591Z,53.47
2017-11-26T13:35:32.837Z,49.40
2017-11-26T13:37:59.070Z,37.50
2017-11-26T13:40:25.359Z,37.20
2017-11-26T13:42:51.565Z,48.60
2017-11-26T13:45:17.782Z,29.80
2017-11-26T13:47:44.050Z,31.17
2017-11-26T13:50:10.313Z,36.27
2017-11-26T13:52:36.569Z,47.37
2017-11-26T13:55:03.046Z,56.50
2017-11-26T13:57:29.415Z,34.80
2017-11-26T13:59:55.647Z,29.67
2017-11-26T14:02:21.909Z,36.33
2017-11-26T14:04:48.132Z,40.37
2017-11-26T14:07:14.365Z,39.60
2017-11-26T14:09:40.602Z,39.20
2017-11-26T14:12:06.831Z,56.40
2017-11-26T14:14:33.067Z,61.87
2017-11-26T14:16:59.471Z,39.57
2017-11-26T14:19:25.775Z,37.60
2017-11-26T14:21:52.009Z,39.50
2017-11-26T14:24:18.279Z,40.30
2017-11-26T14:26:44.642Z,49.27
2017-11-26T14:29:10.890Z,49.23
2017-11-26T14:31:37.154Z,51.87
2017-11-26T14:34:03.440Z,68.97
2017-11-26T14:36:29.655Z,57.90
2017-11-26T14:38:55.901Z,42.33
2017-11-26T14:41:22.153Z,33.03
2017-11-26T14:43:48.388Z,41.20
2017-11-26T14:46:14.636Z,49.17
2017-11-26T14:48:40.870Z,68.80
2017-11-26T14:51:07.106Z,53.33
2017-11-26T14:53:33.384Z,55.57
2017-11-26T14:55:59.668Z,63.00
2017-11-26T14:58:25.895Z,70.67
2017-11-26T15:00:52.625Z,60.23
2017-11-26T15:03:18.870Z,70.57
2017-11-26T15:05:45.105Z,63.17
2017-11-26T15:08:11.522Z,81.30
2017-11-26T15:10:37.784Z,72.03
2017-11-26T15:13:04.009Z,49.90
2017-11-26T15:15:30.307Z,58.30
2017-11-26T15:17:56.528Z,35.43
2017-11-26T15:20:22.741Z,41.17
2017-11-26T15:22:48.993Z,33.67
2017-11-26T15:25:15.226Z,39.33
2017-11-26T15:27:41.464Z,40.50
2017-11-26T15:30:07.751Z,45.03
2017-11-26T15:32:33.978Z,46.30
2017-11-26T15:35:00.207Z,50.53
2017-11-26T15:37:26.468Z,42.80
2017-11-26T15:39:52.695Z,44.83
2017-11-26T15:42:18.924Z,42.60
2017-11-26T15:44:45.185Z,45.70
2017-11-26T15:47:11.429Z,52.37
2017-11-26T15:49:37.643Z,59.33
2017-11-26T15:52:03.930Z,56.17
2017-11-26T15:54:30.160Z,54.07
2017-11-26T15:56:56.396Z,56.50
2017-11-26T15:59:22.679Z,60.27
2017-11-26T16:01:48.994Z,55.00
2017-11-26T16:04:15.228Z,59.70
2017-11-26T16:06:41.508Z,54.77
2017-11-26T16:09:07.753Z,58.97
2017-11-26T16:11:33.996Z,55.53
2017-11-26T16:14:00.258Z,50.33
2017-11-26T16:16:26.490Z,48.63
2017-11-26T16:18:52.724Z,46.97
2017-11-26T16:21:19.008Z,44.50
2017-11-26T16:23:45.263Z,46.40
2017-11-26T16:26:11.500Z,60.60
2017-11-26T16:28:37.768Z,60.87
2017-11-26T16:31:04.037Z,45.87
2017-11-26T16:33:30.300Z,50.03
2017-11-26T16:35:56.563Z,51.13
2017-11-26T16:38:22.822Z,46.20
2017-11-26T16:40:49.262Z,46.70
2017-11-26T16:43:15.529Z,48.03
2017-11-26T16:45:41.774Z,51.90
2017-11-26T16:48:07.996Z,49.90
2017-11-26T16:50:34.280Z,50.47
2017-11-26T16:53:00.540Z,52.10
2017-11-26T16:55:26.785Z,45.03
2017-11-26T16:57:53.044Z,48.30
2017-11-26T17:00:19.275Z,45.43
2017-11-26T17:02:45.515Z,52.63
2017-11-26T17:05:11.825Z,45.63
2017-11-26T17:07:38.072Z,85.13
2017-11-26T17:10:04.315Z,41.37
2017-11-26T17:12:30.608Z,39.77
2017-11-26T17:14:56.862Z,50.17
2017-11-26T17:17:23.133Z,44.77
2017-11-26T17:19:49.401Z,41.17
2017-11-26T17:22:15.630Z,48.07
2017-11-26T17:24:41.856Z,51.93
2017-11-26T17:27:08.177Z,46.27
2017-11-26T17:29:34.424Z,43.27
2017-11-26T17:32:00.657Z,44.80
2017-11-26T17:34:26.919Z,44.27
2017-11-26T17:36:53.148Z,45.87
2017-11-26T17:39:19.375Z,45.43
2017-11-26T17:41:45.652Z,45.23
2017-11-26T17:44:11.889Z,46.73
2017-11-26T17:46:38.140Z,47.07
2017-11-26T17:49:04.414Z,44.93
2017-11-26T17:51:30.662Z,45.07
2017-11-26T17:53:56.898Z,44.30
2017-11-26T17:56:23.775Z,43.90
2017-11-26T17:58:50.008Z,47.87
2017-11-26T18:01:16.250Z,44.57
2017-11-26T18:03:42.515Z,42.17
2017-11-26T18:06:08.765Z,45.00
2017-11-26T18:08:35.008Z,45.57
2017-11-26T18:11:01.290Z,41.20
2017-11-26T18:13:27.521Z,43.97
2017-11-26T18:15:53.751Z,43.90
2017-11-26T18:18:20.023Z,45.73
2017-11-26T18:20:46.324Z,44.43
2017-11-26T18:23:12.614Z,42.80
2017-11-26T18:25:38.899Z,40.50
2017-11-26T18:28:05.154Z,38.40
2017-11-26T18:30:31.407Z,54.40
2017-11-26T18:32:57.685Z,48.20
2017-11-26T18:35:23.935Z,51.70
2017-11-26T18:37:50.179Z,52.33
2017-11-26T18:40:16.516Z,56.73
2017-11-26T18:42:42.757Z,63.50
2017-11-26T18:45:09.011Z,58.90
2017-11-26T18:47:35.344Z,56.97
2017-11-26T18:50:01.600Z,56.93
2017-11-26T18:52:27.866Z,55.40
2017-11-26T18:54:54.144Z,57.03
2017-11-26T18:57:20.378Z,62.00
2017-11-26T18:59:46.622Z,60.90
2017-11-26T19:02:12.889Z,70.60
2017-11-26T19:04:39.145Z,66.03
2017-11-26T19:07:05.439Z,59.17
2017-11-26T19:09:31.714Z,70.67
2017-11-26T19:11:57.948Z,77.03
2017-11-26T19:14:24.196Z,62.40
2017-11-26T19:16:50.472Z,66.30
2017-11-26T19:19:16.842Z,46.67
2017-11-26T19:21:43.144Z,106.57
2017-11-26T19:24:09.455Z,86.87
2017-11-26T19:26:35.714Z,75.43
2017-11-26T19:29:01.966Z,66.13
2017-11-26T19:31:28.241Z,59.60
2017-11-26T19:33:54.477Z,66.30
2017-11-26T19:36:20.845Z,63.20
2017-11-26T19:38:47.139Z,51.10
2017-11-26T19:41:13.424Z,54.47
2017-11-26T19:43:39.690Z,56.20
2017-11-26T19:46:05.930Z,64.70
2017-11-26T19:48:32.157Z,54.80
2017-11-26T19:50:58.419Z,56.53
2017-11-26T19:53:24.726Z,59.13
2017-11-26T19:55:50.981Z,56.33
2017-11-26T19:58:17.265Z,55.57
2017-11-26T20:00:43.517Z,60.93
2017-11-26T20:03:09.743Z,55.67
2017-11-26T20:05:36.024Z,60.27
2017-11-26T20:08:02.310Z,64.23
2017-11-26T20:10:28.617Z,72.43
2017-11-26T20:12:54.884Z,73.30
2017-11-26T20:15:21.124Z,68.27
2017-11-26T20:17:47.427Z,72.03
2017-11-26T20:20:13.718Z,66.03
2017-11-26T20:22:39.970Z,65.97
2017-11-26T20:25:06.393Z,68.55
2017-11-26T20:27:32.681Z,60.80
2017-11-26T20:29:58.931Z,65.03
2017-11-26T20:32:25.173Z,62.67
2017-11-26T20:34:51.517Z,57.30
2017-11-26T20:37:17.788Z,53.67
2017-11-26T20:39:44.089Z,63.20
2017-11-26T20:42:10.331Z,56.47
2017-11-26T20:44:36.582Z,62.47
2017-11-26T20:47:02.861Z,59.80
2017-11-26T20:49:29.092Z,55.80
2017-11-26T20:51:55.340Z,66.33
2017-11-26T20:54:21.609Z,59.10
2017-11-26T20:56:47.857Z,58.70
2017-11-26T20:59:14.107Z,61.60
2017-11-26T21:01:40.414Z,64.13
2017-11-26T21:04:06.649Z,65.97
2017-11-26T21:06:33.091Z,62.43
2017-11-26T21:08:59.385Z,69.37
2017-11-26T21:11:25.629Z,65.63
2017-11-26T21:13:51.856Z,62.70
2017-11-26T21:16:18.127Z,63.83
2017-11-26T21:18:44.385Z,53.93
2017-11-26T21:21:10.663Z,52.80
2017-11-26T21:23:36.933Z,55.03
2017-11-26T21:26:03.164Z,59.33
2017-11-26T21:28:29.411Z,64.87
2017-11-26T21:30:55.794Z,59.70
2017-11-26T21:33:22.061Z,52.87
2017-11-26T21:35:48.293Z,75.53
2017-11-26T21:38:14.546Z,71.37
2017-11-26T21:40:40.901Z,71.33
2017-11-26T21:43:07.171Z,63.33
2017-11-26T21:45:33.434Z,57.07
2017-11-26T21:47:59.661Z,58.73
2017-11-26T21:50:25.890Z,59.23
2017-11-26T21:52:52.177Z,56.67
2017-11-26T21:55:18.408Z,56.43
2017-11-26T21:57:44.727Z,50.83
2017-11-26T22:00:11.009Z,51.67
2017-11-26T22:02:37.278Z,54.20
2017-11-26T22:05:03.538Z,51.40
2017-11-26T22:07:29.822Z,50.90
2017-11-26T22:09:56.055Z,52.20
2017-11-26T22:12:22.314Z,44.87
2017-11-26T22:14:48.601Z,45.33
2017-11-26T22:17:14.856Z,41.70
2017-11-26T22:19:41.130Z,35.67
2017-11-26T22:22:07.421Z,38.10
2017-11-26T22:24:33.682Z,36.97
2017-11-26T22:26:59.907Z,34.60
2017-11-26T22:29:26.168Z,36.77
2017-11-26T22:31:52.546Z,36.90
2017-11-26T22:34:18.790Z,30.53
2017-11-26T22:36:45.088Z,31.50
2017-11-26T22:39:11.412Z,27.20
2017-11-26T22:41:37.653Z,28.30
2017-11-26T22:44:03.946Z,28.10
2017-11-26T22:46:30.200Z,28.27
2017-11-26T22:48:56.446Z,28.87
2017-11-26T22:51:22.732Z,30.80
2017-11-26T22:53:49.003Z,28.80
2017-11-26T22:56:15.252Z,30.67
2017-11-26T22:58:41.535Z,27.90
2017-11-26T23:01:07.787Z,30.73
2017-11-26T23:03:34.088Z,32.33
2017-11-26T23:06:00.381Z,27.63
2017-11-26T23:08:26.621Z,27.57
2017-11-26T23:10:52.859Z,26.30
2017-11-26T23:13:19.161Z,30.20
2017-11-26T23:15:45.396Z,30.30
2017-11-26T23:18:11.624Z,27.53
2017-11-26T23:20:37.899Z,27.80
2017-11-26T23:23:04.160Z,26.50
2017-11-26T23:25:30.462Z,26.77
2017-11-26T23:27:56.770Z,26.37
2017-11-26T23:30:23.053Z,26.30
2017-11-26T23:32:49.296Z,27.13
2017-11-26T23:35:15.564Z,27.50
2017-11-26T23:37:41.805Z,28.57
2017-11-26T23:40:08.116Z,25.40
2017-11-26T23:42:34.429Z,26.43
2017-11-26T23:45:00.687Z,26.90
2017-11-26T23:47:26.934Z,26.97
2017-11-26T23:49:53.252Z,27.67
2017-11-26T23:52:19.502Z,26.40
2017-11-26T23:54:45.759Z,28.43
2017-11-26T23:57:12.084Z,40.97
2017-11-26T23:59:38.313Z,28.97
